Time;durP1;ratioP1;P1;durP2;ratioP2;P2;SDS_P1;SDS_P2;PMS_P1;PMS_P2;Temp;Humidity;BMP_temperature;BMP_pressure;BME280_temperature;BME280_humidity;BME280_pressure;Samples;Min_cycle;Max_cycle;Signal;HPM_P1;HPM_P2
2022/08/29 00:00:09;;;;;;;1.85;1.20;;;18.70;79.80;;;;;;6272642;22;20015;-86
2022/08/29 00:02:37;;;;;;;5.13;1.73;;;18.60;79.70;;;;;;6273601;22;20011;-88
2022/08/29 00:05:07;;;;;;;3.30;1.67;;;18.60;79.70;;;;;;6273773;22;19988;-86
2022/08/29 00:07:33;;;;;;;2.58;1.48;;;18.50;79.90;;;;;;6273034;22;19996;-86
2022/08/29 00:10:00;;;;;;;3.72;1.67;;;18.50;79.90;;;;;;6290689;22;20016;-87
2022/08/29 00:12:31;;;;;;;2.35;1.33;;;18.50;80.00;;;;;;6253386;23;20038;-86
2022/08/29 00:14:59;;;;;;;4.05;1.80;;;18.40;80.20;;;;;;6278789;22;20004;-86
2022/08/29 00:17:32;;;;;;;3.20;1.30;;;18.40;80.40;;;;;;6228172;23;20105;-87
2022/08/29 00:19:59;;;;;;;4.13;1.20;;;18.30;80.30;;;;;;6253295;23;20012;-86
2022/08/29 00:22:25;;;;;;;2.58;1.30;;;18.30;80.20;;;;;;6226528;23;20015;-86
2022/08/29 00:24:51;;;;;;;1.80;1.40;;;18.30;80.30;;;;;;6277799;22;20000;-86
2022/08/29 00:27:21;;;;;;;2.45;1.50;;;18.30;80.50;;;;;;6253193;23;20024;-87
2022/08/29 00:29:47;;;;;;;2.92;1.23;;;18.20;80.80;;;;;;6254188;22;20389;-87
2022/08/29 00:32:15;;;;;;;2.30;1.20;;;18.10;81.10;;;;;;6252661;23;20312;-86
2022/08/29 00:34:41;;;;;;;2.85;1.55;;;18.00;81.20;;;;;;6227127;23;20008;-85
2022/08/29 00:37:11;;;;;;;4.32;1.55;;;18.00;81.40;;;;;;6254293;23;20043;-87
2022/08/29 00:39:36;;;;;;;5.60;1.73;;;17.90;81.40;;;;;;6278362;22;20039;-87
2022/08/29 00:42:02;;;;;;;7.13;1.77;;;17.90;81.60;;;;;;6278323;22;20004;-86
2022/08/29 00:44:31;;;;;;;4.05;1.60;;;17.90;81.70;;;;;;6277944;22;20016;-87
2022/08/29 00:47:04;;;;;;;3.38;1.52;;;17.90;81.60;;;;;;6253737;22;20107;-87
2022/08/29 00:49:33;;;;;;;2.75;1.40;;;17.80;81.50;;;;;;6276300;22;20330;-86
2022/08/29 00:52:10;;;;;;;3.80;1.30;;;17.80;81.50;;;;;;6227407;23;20018;-86
2022/08/29 00:54:42;;;;;;;2.35;1.27;;;17.80;81.50;;;;;;6254150;22;20012;-87
2022/08/29 00:57:11;;;;;;;3.38;1.20;;;17.70;81.70;;;;;;6278349;22;20046;-86
2022/08/29 00:59:38;;;;;;;4.10;1.40;;;17.70;81.80;;;;;;6277687;22;20008;-86
2022/08/29 01:02:06;;;;;;;1.85;1.30;;;17.70;81.80;;;;;;6250960;23;20015;-87
2022/08/29 01:04:35;;;;;;;3.55;1.58;;;17.70;82.00;;;;;;6252406;23;20000;-87
2022/08/29 01:07:01;;;;;;;3.25;1.65;;;17.70;82.20;;;;;;6226158;23;20016;-86
2022/08/29 01:09:29;;;;;;;3.58;1.38;;;17.70;82.40;;;;;;6227040;23;20015;-85
2022/08/29 01:14:52;;;;;;;3.22;1.65;;;17.60;82.50;;;;;;6253988;23;20011;-85
2022/08/29 01:17:30;;;;;;;2.33;1.27;;;17.60;82.70;;;;;;6251959;23;20058;-86
2022/08/29 01:19:59;;;;;;;3.15;1.40;;;17.50;83.20;;;;;;6203003;23;20430;-87
2022/08/29 01:22:59;;;;;;;2.72;1.52;;;17.50;82.70;;;;;;6252667;23;20043;-87
2022/08/29 01:25:30;;;;;;;5.00;1.60;;;17.50;82.70;;;;;;6252290;23;19996;-86
2022/08/29 01:28:14;;;;;;;2.05;1.30;;;17.40;82.80;;;;;;6202480;23;20032;-87
2022/08/29 01:31:29;;;;;;;3.47;1.55;;;17.40;82.80;;;;;;6251704;23;20004;-87
2022/08/29 01:33:58;;;;;;;3.10;1.70;;;17.40;83.00;;;;;;6252632;23;19997;-86
2022/08/29 01:36:33;;;;;;;5.00;1.55;;;17.30;83.00;;;;;;6252940;23;20022;-87
2022/08/29 01:38:59;;;;;;;4.35;1.85;;;17.20;83.20;;;;;;6254646;23;20410;-88
2022/08/29 01:41:30;;;;;;;5.35;1.60;;;17.20;83.50;;;;;;6203795;23;20031;-86
2022/08/29 01:43:56;;;;;;;3.20;1.40;;;17.20;83.70;;;;;;6204058;23;20501;-86
2022/08/29 01:46:27;;;;;;;5.63;1.80;;;17.20;83.80;;;;;;6228808;23;20000;-86
2022/08/29 01:48:53;;;;;;;3.50;1.73;;;17.10;83.90;;;;;;6256529;23;20019;-86
2022/08/29 01:51:20;;;;;;;2.63;1.33;;;17.10;83.70;;;;;;6273978;22;20032;-87
2022/08/29 01:53:46;;;;;;;3.92;1.95;;;17.20;83.90;;;;;;6224633;22;19995;-87
2022/08/29 01:56:17;;;;;;;3.45;1.80;;;17.10;83.90;;;;;;6271923;22;20052;-86
2022/08/29 01:58:46;;;;;;;5.25;1.83;;;17.00;84.10;;;;;;6274162;22;20004;-88
2022/08/29 02:01:15;;;;;;;3.08;1.90;;;17.00;84.10;;;;;;6240730;22;20012;-86
2022/08/29 02:03:50;;;;;;;4.63;1.95;;;17.00;84.20;;;;;;6259583;23;19996;-87
2022/08/29 02:06:20;;;;;;;5.15;2.10;;;17.00;84.20;;;;;;6254606;23;20008;-88
2022/08/29 02:08:49;;;;;;;3.60;1.92;;;16.90;84.10;;;;;;6254093;23;20044;-88
2022/08/29 02:11:16;;;;;;;4.47;1.80;;;17.00;84.10;;;;;;6254088;23;20000;-86
2022/08/29 02:13:57;;;;;;;3.53;1.63;;;17.00;84.10;;;;;;6253863;23;20076;-87
2022/08/29 02:16:26;;;;;;;4.97;1.98;;;17.00;84.00;;;;;;6254236;23;20058;-87
2022/08/29 02:19:00;;;;;;;2.35;1.52;;;16.90;84.00;;;;;;6253441;23;20004;-85
2022/08/29 02:21:28;;;;;;;4.25;1.65;;;16.90;84.10;;;;;;6253094;23;20008;-86
2022/08/29 02:23:57;;;;;;;3.22;1.52;;;16.90;83.90;;;;;;6227801;23;20004;-86
2022/08/29 02:26:23;;;;;;;4.78;1.92;;;16.90;83.80;;;;;;6252817;23;20000;-87
2022/08/29 02:28:52;;;;;;;3.40;1.98;;;16.90;83.90;;;;;;6227702;23;20023;-87
2022/08/29 02:31:21;;;;;;;3.55;1.80;;;16.80;84.00;;;;;;6253954;23;19996;-87
2022/08/29 02:33:50;;;;;;;2.90;1.75;;;16.80;84.20;;;;;;6252931;23;20005;-87
2022/08/29 02:36:25;;;;;;;3.42;1.58;;;16.80;84.20;;;;;;6203388;23;20012;-86
2022/08/29 02:38:56;;;;;;;2.78;1.45;;;16.80;84.20;;;;;;6253854;23;20062;-86
2022/08/29 02:41:22;;;;;;;3.45;1.60;;;16.80;84.30;;;;;;6227627;23;20100;-87
2022/08/29 02:43:54;;;;;;;2.95;1.73;;;16.70;84.20;;;;;;6227736;23;19996;-87
2022/08/29 02:46:20;;;;;;;2.75;1.45;;;16.70;84.30;;;;;;6253687;23;20001;-87
2022/08/29 02:48:46;;;;;;;3.25;1.70;;;16.70;84.20;;;;;;6228052;23;19985;-87
2022/08/29 02:51:26;;;;;;;3.55;1.70;;;16.60;84.20;;;;;;6228252;23;20004;-87
2022/08/29 02:53:54;;;;;;;4.72;1.80;;;16.60;84.60;;;;;;6254764;23;19996;-86
2022/08/29 02:56:20;;;;;;;2.38;1.42;;;16.60;84.70;;;;;;6253252;23;20030;-86
2022/08/29 02:58:48;;;;;;;2.85;1.55;;;16.60;84.70;;;;;;6253018;23;20008;-87
2022/08/29 03:01:19;;;;;;;2.80;1.50;;;16.60;84.70;;;;;;6254345;23;20482;-87
2022/08/29 03:03:45;;;;;;;3.13;1.65;;;16.60;84.80;;;;;;6253631;23;20023;-87
2022/08/29 03:06:14;;;;;;;6.80;2.17;;;16.60;84.80;;;;;;6227621;23;20075;-86
2022/08/29 03:08:43;;;;;;;3.00;1.75;;;16.60;85.00;;;;;;6217546;23;20020;-85
2022/08/29 03:11:09;;;;;;;2.30;1.55;;;16.50;85.10;;;;;;6254159;22;20390;-86
2022/08/29 03:13:37;;;;;;;1.83;1.27;;;16.50;85.10;;;;;;6252906;23;19996;-86
2022/08/29 03:16:04;;;;;;;2.83;1.55;;;16.50;85.10;;;;;;6254718;23;20023;-87
2022/08/29 03:18:33;;;;;;;4.00;1.52;;;16.50;84.90;;;;;;6252535;23;20000;-87
2022/08/29 03:20:58;;;;;;;7.28;2.05;;;16.40;85.00;;;;;;6277848;22;20019;-85
2022/08/29 03:23:27;;;;;;;3.40;1.60;;;16.40;85.30;;;;;;6252860;23;20003;-84
2022/08/29 03:25:54;;;;;;;2.80;2.05;;;16.30;85.50;;;;;;6252438;23;20000;-87
2022/08/29 03:28:20;;;;;;;4.05;1.90;;;16.30;85.70;;;;;;6252635;23;20445;-85
2022/08/29 03:30:48;;;;;;;3.67;1.73;;;16.30;85.90;;;;;;6253752;23;20304;-87
2022/08/29 03:33:16;;;;;;;3.15;1.60;;;16.30;86.00;;;;;;6197601;23;20012;-87
2022/08/29 03:35:42;;;;;;;3.92;2.10;;;16.20;86.20;;;;;;6227196;23;20004;-86
2022/08/29 03:38:09;;;;;;;4.68;1.80;;;16.20;86.40;;;;;;6260670;22;20000;-87
2022/08/29 03:40:35;;;;;;;4.57;1.98;;;16.20;86.50;;;;;;6298825;22;20004;-86
2022/08/29 03:43:10;;;;;;;4.55;2.20;;;16.10;86.60;;;;;;6273397;22;20003;-88
2022/08/29 03:45:35;;;;;;;2.78;2.03;;;16.20;86.70;;;;;;6298530;22;20003;-86
2022/08/29 03:48:01;;;;;;;2.55;1.60;;;16.20;86.70;;;;;;6273588;22;20008;-87
2022/08/29 03:50:29;;;;;;;3.08;1.67;;;16.20;86.50;;;;;;6264006;22;20008;-86
2022/08/29 03:52:54;;;;;;;3.28;2.03;;;16.20;86.50;;;;;;6279893;22;19996;-88
2022/08/29 03:55:20;;;;;;;3.47;2.00;;;16.20;86.50;;;;;;6279046;22;19996;-86
2022/08/29 03:57:48;;;;;;;3.47;2.00;;;16.20;86.60;;;;;;6253406;23;20004;-87
2022/08/29 04:00:17;;;;;;;3.50;2.00;;;16.20;86.50;;;;;;6254122;22;20011;-88
2022/08/29 04:02:45;;;;;;;2.47;1.85;;;16.20;86.30;;;;;;6253060;23;20019;-86
2022/08/29 04:05:13;;;;;;;2.83;1.75;;;16.20;86.30;;;;;;6252872;23;20310;-86
2022/08/29 04:07:44;;;;;;;4.72;2.10;;;16.20;86.20;;;;;;6251817;22;20346;-86
2022/08/29 04:10:33;;;;;;;;;;;16.20;86.40;;;;;;6253103;23;20138;-87
2022/08/29 04:13:05;;;;;;;3.53;2.13;;;16.20;86.50;;;;;;6262113;22;19910;-86
2022/08/29 04:15:34;;;;;;;4.13;2.15;;;16.20;86.60;;;;;;6252683;23;20007;-85
2022/08/29 04:18:06;;;;;;;3.60;1.98;;;16.20;86.70;;;;;;6278291;22;20418;-86
2022/08/29 04:20:34;;;;;;;3.40;2.13;;;16.20;87.00;;;;;;6252346;23;20000;-86
2022/08/29 04:23:00;;;;;;;3.15;1.90;;;16.20;87.20;;;;;;6252023;23;20004;-86
2022/08/29 04:25:34;;;;;;;3.28;1.67;;;16.20;87.40;;;;;;6226648;23;20334;-87
2022/08/29 04:28:01;;;;;;;3.47;1.85;;;16.30;87.50;;;;;;6253945;22;20005;-86
2022/08/29 04:30:35;;;;;;;4.10;1.90;;;16.30;87.40;;;;;;6227327;23;20095;-87
2022/08/29 04:33:01;;;;;;;4.70;2.00;;;16.30;87.60;;;;;;6278171;22;20004;-86
2022/08/29 04:35:28;;;;;;;3.78;1.98;;;16.30;87.60;;;;;;6278726;22;20330;-87
2022/08/29 04:37:57;;;;;;;3.60;2.10;;;16.30;87.80;;;;;;6278363;22;20008;-86
2022/08/29 04:40:25;;;;;;;3.95;2.10;;;16.40;87.90;;;;;;6278385;22;20027;-86
2022/08/29 04:42:51;;;;;;;2.53;1.90;;;16.40;87.90;;;;;;6252074;22;20019;-86
2022/08/29 04:45:20;;;;;;;3.42;2.20;;;16.40;88.00;;;;;;6277453;22;20008;-86
2022/08/29 04:47:47;;;;;;;5.25;2.08;;;16.50;88.10;;;;;;6252991;22;20000;-87
2022/08/29 04:50:17;;;;;;;4.28;2.33;;;16.50;88.40;;;;;;6252414;23;20016;-87
2022/08/29 04:52:49;;;;;;;3.78;2.38;;;16.50;88.50;;;;;;6253144;23;20008;-88
2022/08/29 04:55:17;;;;;;;3.28;2.17;;;16.50;88.70;;;;;;6278268;22;20087;-87
2022/08/29 04:57:42;;;;;;;4.72;2.20;;;16.60;88.80;;;;;;6276898;22;20004;-86
2022/08/29 05:00:13;;;;;;;3.28;2.30;;;16.60;88.80;;;;;;6251920;23;20004;-88
2022/08/29 05:02:42;;;;;;;2.65;1.95;;;16.60;88.60;;;;;;6278159;22;20023;-86
2022/08/29 05:05:11;;;;;;;4.55;2.30;;;16.70;88.90;;;;;;6251958;23;20031;-87
2022/08/29 05:07:41;;;;;;;3.67;2.10;;;16.70;88.90;;;;;;6252685;22;20445;-87
2022/08/29 05:10:14;;;;;;;3.67;2.20;;;16.70;88.90;;;;;;6252647;23;20016;-86
2022/08/29 05:12:42;;;;;;;3.97;1.88;;;16.70;89.00;;;;;;6279649;22;20020;-87
2022/08/29 05:15:10;;;;;;;4.78;2.22;;;16.80;89.00;;;;;;6256568;23;20075;-87
2022/08/29 05:17:36;;;;;;;4.07;2.30;;;16.80;89.00;;;;;;6229919;23;20024;-86
2022/08/29 05:20:07;;;;;;;3.08;2.00;;;16.80;89.10;;;;;;6281144;22;20008;-87
2022/08/29 05:22:33;;;;;;;4.25;2.10;;;16.80;89.00;;;;;;6254427;23;20007;-87
2022/08/29 05:25:03;;;;;;;3.13;2.33;;;16.80;89.00;;;;;;6254999;22;20094;-86
2022/08/29 05:27:30;;;;;;;4.18;2.53;;;16.90;89.00;;;;;;6262963;22;20005;-86
2022/08/29 05:30:04;;;;;;;2.80;2.15;;;16.80;88.90;;;;;;6300527;22;20035;-85
2022/08/29 05:32:29;;;;;;;4.22;2.22;;;16.80;89.00;;;;;;6274604;22;19988;-83
2022/08/29 05:34:56;;;;;;;4.07;2.28;;;16.90;89.00;;;;;;6274818;22;20003;-87
2022/08/29 05:37:22;;;;;;;4.40;2.35;;;16.90;89.10;;;;;;6275135;22;19995;-86
2022/08/29 05:39:52;;;;;;;6.90;3.13;;;16.90;89.10;;;;;;6284190;22;20000;-85
2022/08/29 05:42:21;;;;;;;3.90;2.00;;;16.90;89.20;;;;;;6279809;22;20307;-86
2022/08/29 05:44:48;;;;;;;5.75;2.33;;;17.00;89.30;;;;;;6255277;22;20382;-86
2022/08/29 05:47:16;;;;;;;4.30;2.38;;;17.00;89.20;;;;;;6253122;23;20067;-87
2022/08/29 05:49:42;;;;;;;4.38;2.15;;;17.00;89.30;;;;;;6253615;23;20012;-87
2022/08/29 05:52:14;;;;;;;5.88;2.42;;;17.10;89.50;;;;;;6252840;22;20004;-86
2022/08/29 05:54:43;;;;;;;4.03;2.70;;;17.10;89.50;;;;;;6254296;23;20457;-87
2022/08/29 05:57:11;;;;;;;4.82;2.70;;;17.20;90.00;;;;;;6279116;22;20005;-85
2022/08/29 05:59:39;;;;;;;5.57;2.72;;;17.20;89.40;;;;;;6278731;22;20000;-85
2022/08/29 06:02:10;;;;;;;6.53;3.10;;;17.30;89.30;;;;;;6279809;22;20068;-86
2022/08/29 06:04:36;;;;;;;;;;;17.30;89.30;;;;;;6228908;23;20004;-87
2022/08/29 06:07:03;;;;;;;6.68;3.15;;;17.40;89.10;;;;;;6254607;23;19919;-88
2022/08/29 06:09:29;;;;;;;5.80;2.80;;;17.50;89.10;;;;;;6254948;23;20446;-88
2022/08/29 06:11:57;;;;;;;6.13;2.92;;;17.50;88.90;;;;;;6278782;22;19996;-86
2022/08/29 06:14:23;;;;;;;5.35;3.05;;;17.60;88.40;;;;;;6252492;22;20028;-85
2022/08/29 06:16:51;;;;;;;6.72;3.22;;;17.60;88.10;;;;;;6254840;23;20003;-86
2022/08/29 06:19:17;;;;;;;8.27;3.45;;;17.70;87.70;;;;;;6227974;23;20012;-86
2022/08/29 06:21:42;;;;;;;6.43;3.20;;;17.70;86.50;;;;;;6279656;22;20322;-87
2022/08/29 06:24:08;;;;;;;6.78;3.10;;;17.70;85.90;;;;;;6278850;22;20489;-85
2022/08/29 06:26:44;;;;;;;5.63;3.38;;;17.80;85.60;;;;;;6278491;22;20012;-85
2022/08/29 06:29:18;;;;;;;6.03;3.47;;;17.80;85.10;;;;;;6278677;22;20062;-86
2022/08/29 06:31:44;;;;;;;6.68;3.50;;;17.80;85.00;;;;;;6255213;22;20012;-86
2022/08/29 06:34:09;;;;;;;5.57;3.00;;;17.90;84.70;;;;;;6252858;23;20114;-85
2022/08/29 06:36:36;;;;;;;6.53;3.42;;;18.00;84.40;;;;;;6278607;22;19996;-87
2022/08/29 06:39:08;;;;;;;5.93;3.20;;;18.10;84.10;;;;;;6254386;23;20011;-85
2022/08/29 06:41:35;;;;;;;5.50;2.97;;;18.10;83.70;;;;;;6278685;22;20008;-87
2022/08/29 06:44:02;;;;;;;5.43;3.38;;;18.20;83.60;;;;;;6229581;23;20004;-86
2022/08/29 06:46:39;;;;;;;5.95;3.28;;;18.30;83.30;;;;;;6252533;23;20003;-85
2022/08/29 06:49:14;;;;;;;5.85;3.30;;;18.30;82.90;;;;;;6278717;22;19996;-85
2022/08/29 06:51:43;;;;;;;6.00;2.85;;;18.30;82.80;;;;;;6280072;22;20028;-86
2022/08/29 06:54:11;;;;;;;6.22;3.20;;;18.40;83.40;;;;;;6252357;23;20000;-85
2022/08/29 06:56:38;;;;;;;6.80;3.42;;;18.50;82.70;;;;;;6275892;22;20004;-85
2022/08/29 06:59:05;;;;;;;4.68;2.80;;;18.50;82.40;;;;;;6276540;22;20065;-86
2022/08/29 07:01:33;;;;;;;6.60;3.05;;;18.50;82.20;;;;;;6251443;22;20016;-86
2022/08/29 07:03:59;;;;;;;7.65;3.35;;;18.60;82.20;;;;;;6251725;22;20514;-84
2022/08/29 07:06:26;;;;;;;6.65;2.65;;;18.70;81.90;;;;;;6251471;23;20007;-86
2022/08/29 07:08:55;;;;;;;3.97;2.58;;;18.80;81.80;;;;;;6276062;22;20012;-86
2022/08/29 07:11:21;;;;;;;5.57;3.03;;;18.90;81.60;;;;;;6277458;22;20003;-87
2022/08/29 07:13:48;;;;;;;5.55;3.00;;;18.90;81.00;;;;;;6252711;23;20008;-87
2022/08/29 07:16:18;;;;;;;4.70;3.20;;;18.90;80.50;;;;;;6253178;23;20088;-87
2022/08/29 07:18:50;;;;;;;6.07;3.10;;;18.90;80.20;;;;;;6256579;22;20003;-88
2022/08/29 07:21:20;;;;;;;6.07;2.97;;;18.80;79.80;;;;;;6296194;22;20008;-88
2022/08/29 07:23:46;;;;;;;5.35;2.67;;;18.80;80.00;;;;;;6249047;22;19984;-85
2022/08/29 07:26:18;;;;;;;4.60;2.90;;;18.80;80.70;;;;;;6273991;22;20038;-89
2022/08/29 07:28:49;;;;;;;5.90;2.58;;;18.90;80.00;;;;;;6299485;22;19993;-87
2022/08/29 07:31:21;;;;;;;4.90;2.30;;;18.90;79.70;;;;;;6273595;22;19984;-88
2022/08/29 07:33:47;;;;;;;;;;;19.00;79.40;;;;;;6282401;22;20007;-86
2022/08/29 07:36:14;;;;;;;6.80;2.60;;;19.10;79.30;;;;;;6254972;22;19945;-87
2022/08/29 07:38:42;;;;;;;4.13;2.50;;;19.10;79.20;;;;;;6253069;22;20066;-86
2022/08/29 07:41:13;;;;;;;4.53;2.45;;;19.20;78.90;;;;;;6278216;22;20012;-85
2022/08/29 07:43:45;;;;;;;4.32;2.55;;;19.30;78.70;;;;;;6278067;22;20027;-87
2022/08/29 07:46:36;;;;;;;4.82;2.65;;;19.20;78.00;;;;;;6277827;22;20087;-86
2022/08/29 07:49:27;;;;;;;4.10;2.55;;;19.20;78.70;;;;;;6253686;22;20019;-86
2022/08/29 07:51:54;;;;;;;4.78;2.47;;;19.20;77.60;;;;;;6252473;22;20438;-84
2022/08/29 07:54:21;;;;;;;4.63;2.58;;;19.20;77.80;;;;;;6277334;22;20000;-86
2022/08/29 07:56:58;;;;;;;7.20;2.72;;;19.30;77.50;;;;;;6254231;23;19996;-86
2022/08/29 07:59:26;;;;;;;5.30;2.78;;;19.30;77.30;;;;;;6253066;22;20461;-86
2022/08/29 08:01:52;;;;;;;4.32;2.53;;;19.30;77.20;;;;;;6277035;22;20070;-87
2022/08/29 08:04:24;;;;;;;5.63;2.63;;;19.40;77.30;;;;;;6251916;22;20008;-86
2022/08/29 08:06:49;;;;;;;3.45;2.33;;;19.50;77.40;;;;;;6278064;22;20004;-85
2022/08/29 08:09:16;;;;;;;5.72;2.72;;;19.60;77.30;;;;;;6251862;23;20052;-83
2022/08/29 08:11:42;;;;;;;5.38;2.55;;;19.60;77.30;;;;;;6251278;22;20012;-87
2022/08/29 08:14:09;;;;;;;6.95;2.47;;;19.60;77.60;;;;;;6277216;22;20102;-86
2022/08/29 08:16:35;;;;;;;5.65;2.55;;;19.70;77.80;;;;;;6277475;22;19996;-87
2022/08/29 08:19:03;;;;;;;4.53;2.30;;;19.70;78.00;;;;;;6277780;22;20004;-85
2022/08/29 08:21:29;;;;;;;3.65;2.30;;;19.80;78.20;;;;;;6277233;22;20042;-84
2022/08/29 08:23:56;;;;;;;3.88;2.63;;;19.90;78.10;;;;;;6250441;23;19997;-86
2022/08/29 08:26:23;;;;;;;4.97;2.53;;;19.90;78.20;;;;;;6278348;22;20007;-86
2022/08/29 08:28:52;;;;;;;7.20;3.05;;;19.90;78.30;;;;;;6276457;22;20023;-88
2022/08/29 08:31:24;;;;;;;4.47;2.50;;;19.90;78.40;;;;;;6252226;22;20004;-86
2022/08/29 08:34:02;;;;;;;4.15;2.40;;;19.90;78.50;;;;;;6252281;23;20039;-86
2022/08/29 08:36:30;;;;;;;3.85;2.42;;;19.90;78.60;;;;;;6252412;22;20008;-87
2022/08/29 08:39:00;;;;;;;4.93;2.47;;;20.00;78.50;;;;;;6252625;22;20338;-87
2022/08/29 08:41:32;;;;;;;5.25;2.47;;;20.00;77.60;;;;;;6278073;22;20004;-86
2022/08/29 08:44:09;;;;;;;4.72;2.25;;;20.10;77.60;;;;;;6227249;23;20000;-86
2022/08/29 08:46:43;;;;;;;4.55;2.53;;;20.10;77.30;;;;;;6278330;22;19996;-87
2022/08/29 08:49:18;;;;;;;5.40;2.50;;;20.10;77.30;;;;;;6255427;23;20004;-88
2022/08/29 08:51:50;;;;;;;5.30;2.60;;;20.10;77.20;;;;;;6279630;22;20015;-88
2022/08/29 08:54:28;;;;;;;4.18;2.05;;;20.00;77.10;;;;;;6257321;23;20000;-90
2022/08/29 08:57:07;;;;;;;4.05;2.28;;;20.10;77.20;;;;;;6256630;23;20433;-91
2022/08/29 08:59:42;;;;;;;3.10;2.20;;;20.20;77.20;;;;;;6256584;23;20015;-89
2022/08/29 09:02:35;;;;;;;3.60;2.42;;;20.30;76.60;;;;;;6231596;23;20043;-88
2022/08/29 09:05:23;;;;;;;5.68;2.42;;;20.30;76.20;;;;;;6257860;23;20004;-88
2022/08/29 09:08:13;;;;;;;4.88;2.33;;;20.30;75.40;;;;;;6255370;23;20015;-89
2022/08/29 09:10:57;;;;;;;4.90;2.33;;;20.30;74.80;;;;;;6256538;23;20008;-87
2022/08/29 09:13:42;;;;;;;3.78;2.40;;;20.30;74.80;;;;;;6255944;23;20453;-88
2022/08/29 09:16:55;;;;;;;5.35;2.30;;;20.40;74.60;;;;;;6257357;23;19984;-90
2022/08/29 09:19:33;;;;;;;4.90;2.58;;;20.40;74.50;;;;;;6274154;22;20000;-89
2022/08/29 09:22:14;;;;;;;3.47;2.20;;;20.40;74.00;;;;;;6275468;22;20000;-89
2022/08/29 09:24:53;;;;;;;;;;;20.50;73.90;;;;;;6301082;22;19997;-90
2022/08/29 09:27:28;;;;;;;3.17;2.20;;;20.50;74.00;;;;;;6274080;22;19914;-89
2022/08/29 09:30:09;;;;;;;7.25;2.83;;;20.60;74.20;;;;;;6288189;22;20004;-89
2022/08/29 09:33:06;;;;;;;6.75;2.55;;;20.60;73.80;;;;;;6255792;23;20082;-89
2022/08/29 09:35:49;;;;;;;2.83;2.00;;;20.70;73.80;;;;;;6228274;22;20020;-88
2022/08/29 09:38:22;;;;;;;4.57;2.42;;;20.70;73.70;;;;;;6281149;22;20004;-88
2022/08/29 09:40:57;;;;;;;4.18;2.10;;;20.80;73.60;;;;;;6255915;23;20011;-89
2022/08/29 09:43:47;;;;;;;3.85;2.25;;;20.90;73.80;;;;;;6255310;23;20015;-89
2022/08/29 09:49:21;;;;;;;4.53;2.17;;;21.00;73.40;;;;;;6256668;23;20429;-90
2022/08/29 09:52:18;;;;;;;5.78;2.30;;;21.10;73.60;;;;;;6280690;22;20085;-90
2022/08/29 09:54:47;;;;;;;4.35;2.38;;;21.20;73.30;;;;;;6249234;22;20086;-89
2022/08/29 09:57:44;;;;;;;3.17;1.88;;;21.20;73.00;;;;;;6280319;22;20031;-90
2022/08/29 10:00:39;;;;;;;4.43;2.50;;;21.20;73.40;;;;;;6255096;22;20161;-90
2022/08/29 10:03:33;;;;;;;2.80;2.00;;;21.30;73.30;;;;;;6253871;23;20004;-90
2022/08/29 10:06:27;;;;;;;4.10;1.90;;;21.30;73.10;;;;;;6280570;22;20430;-89
2022/08/29 10:09:01;;;;;;;3.05;2.03;;;21.30;73.00;;;;;;6280140;22;20012;-89
2022/08/29 10:11:59;;;;;;;;;;;;;;;;;;;;;
2022/08/29 10:14:58;;;;;;;4.50;2.13;;;21.40;73.20;;;;;;6257850;23;20015;-91
2022/08/29 10:20:11;;;;;;;4.85;2.38;;;21.40;73.30;;;;;;6257217;23;20015;-89
2022/08/29 10:23:10;;;;;;;3.47;2.20;;;21.40;73.20;;;;;;6280813;22;20011;-87
2022/08/29 10:25:40;;;;;;;3.92;2.03;;;21.40;73.40;;;;;;6255318;23;20001;-89
2022/08/29 10:28:10;;;;;;;4.60;2.25;;;21.40;73.60;;;;;;6229059;23;20426;-91
2022/08/29 10:31:07;;;;;;;2.75;2.03;;;21.40;73.50;;;;;;6256300;23;20063;-90
2022/08/29 10:34:05;;;;;;;4.63;2.55;;;21.50;73.20;;;;;;6282861;22;20000;-89
2022/08/29 10:37:15;;;;;;;4.40;2.20;;;21.40;73.00;;;;;;6255298;23;20030;-91
2022/08/29 10:40:03;;;;;;;3.50;2.08;;;21.40;73.40;;;;;;6255863;23;20004;-89
2022/08/29 10:42:35;;;;;;;3.25;1.85;;;21.50;73.20;;;;;;6280753;22;20016;-89
2022/08/29 10:45:12;;;;;;;2.67;1.85;;;21.60;73.20;;;;;;6281466;22;20000;-89
2022/08/29 10:47:45;;;;;;;4.22;1.88;;;21.60;73.10;;;;;;6255919;23;20005;-89
2022/08/29 10:50:44;;;;;;;3.88;2.17;;;21.70;73.00;;;;;;6255069;23;20004;-90
2022/08/29 10:53:16;;;;;;;3.15;1.92;;;21.80;73.00;;;;;;6255937;23;20422;-90
2022/08/29 10:56:05;;;;;;;3.25;1.90;;;22.00;72.70;;;;;;6255731;23;20000;-90
2022/08/29 10:59:01;;;;;;;4.03;1.63;;;22.00;72.60;;;;;;6255603;22;19992;-90
2022/08/29 11:01:36;;;;;;;1.90;1.58;;;22.10;72.40;;;;;;6255113;23;20012;-89
2022/08/29 11:04:19;;;;;;;2.50;1.50;;;22.10;72.40;;;;;;6256027;23;20000;-88
2022/08/29 11:07:22;;;;;;;3.17;1.77;;;22.20;72.30;;;;;;6255563;23;20000;-89
2022/08/29 11:10:41;;;;;;;5.97;2.47;;;22.20;72.10;;;;;;6221073;23;20027;-89
2022/08/29 11:13:16;;;;;;;3.60;1.83;;;22.20;71.60;;;;;;6255553;23;20051;-89
2022/08/29 11:16:11;;;;;;;3.05;1.80;;;22.20;71.60;;;;;;6255276;23;20004;-90
2022/08/29 11:18:57;;;;;;;4.90;2.15;;;22.20;71.50;;;;;;6262719;22;19984;-89
2022/08/29 11:21:34;;;;;;;3.72;1.85;;;22.20;71.50;;;;;;6224225;22;20011;-91
2022/08/29 11:24:03;;;;;;;3.33;1.85;;;22.20;71.60;;;;;;6273905;22;19996;-90
2022/08/29 11:26:56;;;;;;;5.80;2.28;;;22.20;71.90;;;;;;6248491;22;20052;-89
2022/08/29 11:32:29;;;;;;;4.53;2.20;;;22.20;72.20;;;;;;6248795;22;20062;-90
2022/08/29 11:35:08;;;;;;;3.33;2.17;;;22.10;71.90;;;;;;6255848;23;20031;-88
2022/08/29 11:37:52;;;;;;;4.05;2.10;;;22.10;72.20;;;;;;6255990;23;20027;-90
2022/08/29 11:41:18;;;;;;;3.53;2.05;;;22.20;72.40;;;;;;6255026;23;20034;-91
2022/08/29 11:44:24;;;;;;;4.82;2.28;;;22.20;72.50;;;;;;6134401;23;20033;-91
2022/08/29 11:47:05;;;;;;;3.45;1.85;;;22.30;72.70;;;;;;6256849;23;20002;-90
2022/08/29 11:49:40;;;;;;;4.22;2.05;;;22.40;72.70;;;;;;6206553;23;20020;-88
2022/08/29 11:52:33;;;;;;;4.78;2.45;;;22.40;72.50;;;;;;6204799;23;20063;-90
2022/08/29 11:55:30;;;;;;;3.83;2.13;;;22.50;72.50;;;;;;6253886;23;20008;-89
2022/08/29 11:58:02;;;;;;;4.15;2.22;;;22.50;72.40;;;;;;6197063;23;20011;-88
2022/08/29 12:00:58;;;;;;;4.80;2.38;;;22.50;72.10;;;;;;6229883;23;20062;-90
2022/08/29 12:03:57;;;;;;;3.70;2.05;;;22.50;71.90;;;;;;6254342;23;20001;-89
2022/08/29 12:06:30;;;;;;;3.03;2.03;;;22.50;71.60;;;;;;6196535;23;20004;-89
2022/08/29 12:09:11;;;;;;;2.70;1.65;;;22.60;71.70;;;;;;6255612;23;20000;-89
2022/08/29 12:12:04;;;;;;;2.90;1.70;;;22.60;71.40;;;;;;6253884;23;20006;-89
2022/08/29 12:14:33;;;;;;;2.40;1.70;;;22.80;71.40;;;;;;6220755;23;20004;-89
2022/08/29 12:17:03;;;;;;;2.63;1.77;;;22.80;70.60;;;;;;6253582;23;20027;-90
2022/08/29 12:19:46;;;;;;;;;;;22.90;70.00;;;;;;6252641;23;20008;-90
2022/08/29 12:22:55;;;;;;;3.28;1.60;;;22.90;69.80;;;;;;6228240;23;19903;-89
2022/08/29 12:25:45;;;;;;;3.70;2.10;;;23.00;69.80;;;;;;6227161;23;20031;-90
2022/08/29 12:28:19;;;;;;;2.25;1.55;;;23.10;68.30;;;;;;6253855;23;20091;-90
2022/08/29 12:30:57;;;;;;;2.85;2.10;;;23.20;68.50;;;;;;6254562;23;20055;-90
2022/08/29 12:33:44;;;;;;;3.22;1.60;;;23.20;68.40;;;;;;6228651;23;20012;-88
2022/08/29 12:36:49;;;;;;;3.65;1.83;;;23.30;68.60;;;;;;6254604;23;20031;-89
2022/08/29 12:39:51;;;;;;;2.45;1.65;;;23.30;68.70;;;;;;6254609;23;20009;-89
2022/08/29 12:43:06;;;;;;;4.70;1.95;;;23.40;68.90;;;;;;6253935;23;20434;-90
2022/08/29 12:45:44;;;;;;;3.10;1.70;;;23.50;68.60;;;;;;6243456;23;20005;-87
2022/08/29 12:48:32;;;;;;;2.70;1.85;;;23.60;68.90;;;;;;6253853;23;20014;-89
2022/08/29 12:51:01;;;;;;;3.85;1.77;;;23.70;68.70;;;;;;6228966;23;20071;-88
2022/08/29 12:53:33;;;;;;;2.30;1.60;;;23.80;68.20;;;;;;6253866;23;20004;-89
2022/08/29 12:56:35;;;;;;;3.15;2.05;;;23.80;68.30;;;;;;6229821;23;20004;-88
2022/08/29 12:59:06;;;;;;;4.55;2.00;;;23.80;68.20;;;;;;6254832;23;20007;-87
2022/08/29 13:01:40;;;;;;;4.43;2.40;;;23.90;67.60;;;;;;6228321;23;20012;-89
2022/08/29 13:04:10;;;;;;;4.07;2.08;;;23.80;67.40;;;;;;6254016;23;20091;-87
2022/08/29 13:06:37;;;;;;;4.20;1.90;;;23.80;66.70;;;;;;6253186;23;20083;-88
2022/08/29 13:09:11;;;;;;;3.38;1.92;;;23.80;66.20;;;;;;6253541;23;20008;-89
2022/08/29 13:12:12;;;;;;;3.78;1.75;;;23.80;65.90;;;;;;6279724;22;20000;-90
2022/08/29 13:15:09;;;;;;;2.80;1.63;;;23.80;65.90;;;;;;6233359;22;20004;-89
2022/08/29 13:17:44;;;;;;;2.30;1.70;;;23.90;66.00;;;;;;6254478;23;20031;-89
2022/08/29 13:20:44;;;;;;;2.42;1.75;;;23.90;65.30;;;;;;6255493;23;20303;-88
2022/08/29 13:23:32;;;;;;;2.53;1.63;;;23.90;64.20;;;;;;6259322;23;19992;-88
2022/08/29 13:26:08;;;;;;;1.67;1.48;;;23.90;64.30;;;;;;6271338;22;19988;-90
2022/08/29 13:28:49;;;;;;;2.55;1.70;;;23.90;64.70;;;;;;6273577;22;19984;-90
2022/08/29 13:31:20;;;;;;;2.85;1.80;;;24.00;65.00;;;;;;6298084;22;20000;-90
2022/08/29 13:33:57;;;;;;;2.22;1.50;;;24.10;65.20;;;;;;6273085;22;20004;-90
2022/08/29 13:36:58;;;;;;;2.50;1.80;;;24.10;64.50;;;;;;6243612;22;20090;-89
2022/08/29 13:39:49;;;;;;;3.28;1.90;;;24.20;64.20;;;;;;6256586;23;20092;-89